sensor_id;sensor_type;location;lat;lon;timestamp;P1;durP1;ratioP1;P2;durP2;ratioP2
79747;SDS011;69232;47.488;19.268;2023-08-24T00:00:36;6.32;;;3.67;;
79747;SDS011;69232;47.488;19.268;2023-08-24T00:03:05;4.50;;;3.65;;
79747;SDS011;69232;47.488;19.268;2023-08-24T00:05:34;5.35;;;3.67;;
79747;SDS011;69232;47.488;19.268;2023-08-24T00:08:05;6.10;;;3.95;;
79747;SDS011;69232;47.488;19.268;2023-08-24T00:10:31;5.95;;;4.13;;
79747;SDS011;69232;47.488;19.268;2023-08-24T00:12:57;5.40;;;3.58;;
79747;SDS011;69232;47.488;19.268;2023-08-24T00:15:22;5.35;;;3.50;;
79747;SDS011;69232;47.488;19.268;2023-08-24T00:17:48;5.90;;;3.72;;
79747;SDS011;69232;47.488;19.268;2023-08-24T00:20:13;6.57;;;4.10;;
79747;SDS011;69232;47.488;19.268;2023-08-24T00:22:39;6.45;;;4.10;;
79747;SDS011;69232;47.488;19.268;2023-08-24T00:25:05;7.82;;;4.43;;
79747;SDS011;69232;47.488;19.268;2023-08-24T00:27:31;5.70;;;3.85;;
79747;SDS011;69232;47.488;19.268;2023-08-24T00:29:57;6.32;;;4.18;;
79747;SDS011;69232;47.488;19.268;2023-08-24T00:32:22;6.90;;;4.20;;
79747;SDS011;69232;47.488;19.268;2023-08-24T00:34:48;5.53;;;3.75;;
79747;SDS011;69232;47.488;19.268;2023-08-24T00:37:13;5.03;;;3.67;;
79747;SDS011;69232;47.488;19.268;2023-08-24T00:39:39;6.00;;;4.10;;
79747;SDS011;69232;47.488;19.268;2023-08-24T00:42:04;5.90;;;3.80;;
79747;SDS011;69232;47.488;19.268;2023-08-24T00:44:31;7.45;;;4.18;;
79747;SDS011;69232;47.488;19.268;2023-08-24T00:46:56;7.30;;;4.55;;
79747;SDS011;69232;47.488;19.268;2023-08-24T00:49:23;7.95;;;4.22;;
79747;SDS011;69232;47.488;19.268;2023-08-24T00:51:49;6.35;;;4.22;;
79747;SDS011;69232;47.488;19.268;2023-08-24T00:54:15;6.25;;;3.95;;
79747;SDS011;69232;47.488;19.268;2023-08-24T00:56:40;6.10;;;3.72;;
79747;SDS011;69232;47.488;19.268;2023-08-24T00:59:06;6.45;;;4.25;;
79747;SDS011;69232;47.488;19.268;2023-08-24T01:01:32;6.70;;;4.35;;
79747;SDS011;69232;47.488;19.268;2023-08-24T01:03:57;7.35;;;4.43;;
79747;SDS011;69232;47.488;19.268;2023-08-24T01:06:23;5.97;;;4.32;;
79747;SDS011;69232;47.488;19.268;2023-08-24T01:08:48;6.10;;;4.05;;
79747;SDS011;69232;47.488;19.268;2023-08-24T01:14:03;6.38;;;4.10;;
79747;SDS011;69232;47.488;19.268;2023-08-24T01:16:31;6.30;;;4.10;;
79747;SDS011;69232;47.488;19.268;2023-08-24T01:18:59;5.85;;;3.65;;
79747;SDS011;69232;47.488;19.268;2023-08-24T01:21:27;7.95;;;4.07;;
79747;SDS011;69232;47.488;19.268;2023-08-24T01:24:04;6.55;;;4.38;;
79747;SDS011;69232;47.488;19.268;2023-08-24T01:26:35;6.28;;;4.22;;
79747;SDS011;69232;47.488;19.268;2023-08-24T01:29:01;5.60;;;3.75;;
79747;SDS011;69232;47.488;19.268;2023-08-24T01:31:29;8.35;;;4.57;;
79747;SDS011;69232;47.488;19.268;2023-08-24T01:33:55;8.15;;;4.85;;
79747;SDS011;69232;47.488;19.268;2023-08-24T01:36:20;5.88;;;4.20;;
79747;SDS011;69232;47.488;19.268;2023-08-24T01:38:53;7.15;;;4.63;;
79747;SDS011;69232;47.488;19.268;2023-08-24T01:41:32;8.07;;;4.22;;
79747;SDS011;69232;47.488;19.268;2023-08-24T01:44:08;5.13;;;3.95;;
79747;SDS011;69232;47.488;19.268;2023-08-24T01:46:35;9.05;;;4.43;;
79747;SDS011;69232;47.488;19.268;2023-08-24T01:49:01;6.03;;;4.00;;
79747;SDS011;69232;47.488;19.268;2023-08-24T01:51:28;6.72;;;4.13;;
79747;SDS011;69232;47.488;19.268;2023-08-24T01:53:54;8.07;;;4.80;;
79747;SDS011;69232;47.488;19.268;2023-08-24T01:56:20;6.30;;;4.50;;
79747;SDS011;69232;47.488;19.268;2023-08-24T01:58:46;7.22;;;4.68;;
79747;SDS011;69232;47.488;19.268;2023-08-24T02:01:11;6.75;;;4.05;;
79747;SDS011;69232;47.488;19.268;2023-08-24T02:03:37;7.47;;;4.72;;
79747;SDS011;69232;47.488;19.268;2023-08-24T02:06:04;7.30;;;4.18;;
79747;SDS011;69232;47.488;19.268;2023-08-24T02:08:31;7.68;;;4.35;;
79747;SDS011;69232;47.488;19.268;2023-08-24T02:10:57;7.25;;;4.60;;
79747;SDS011;69232;47.488;19.268;2023-08-24T02:13:22;8.75;;;4.38;;
79747;SDS011;69232;47.488;19.268;2023-08-24T02:15:48;6.72;;;4.75;;
79747;SDS011;69232;47.488;19.268;2023-08-24T02:18:13;5.53;;;4.25;;
79747;SDS011;69232;47.488;19.268;2023-08-24T02:20:39;7.57;;;4.72;;
79747;SDS011;69232;47.488;19.268;2023-08-24T02:23:04;5.90;;;4.03;;
79747;SDS011;69232;47.488;19.268;2023-08-24T02:25:30;6.22;;;4.00;;
79747;SDS011;69232;47.488;19.268;2023-08-24T02:27:56;4.95;;;4.07;;
79747;SDS011;69232;47.488;19.268;2023-08-24T02:30:21;8.57;;;4.20;;
79747;SDS011;69232;47.488;19.268;2023-08-24T02:32:46;6.47;;;4.10;;
79747;SDS011;69232;47.488;19.268;2023-08-24T02:35:12;8.18;;;4.50;;
79747;SDS011;69232;47.488;19.268;2023-08-24T02:37:37;6.60;;;4.43;;
79747;SDS011;69232;47.488;19.268;2023-08-24T02:40:03;5.30;;;3.92;;
79747;SDS011;69232;47.488;19.268;2023-08-24T02:42:32;6.63;;;4.45;;
79747;SDS011;69232;47.488;19.268;2023-08-24T02:44:58;7.22;;;4.65;;
79747;SDS011;69232;47.488;19.268;2023-08-24T02:47:23;6.78;;;4.55;;
79747;SDS011;69232;47.488;19.268;2023-08-24T02:49:49;7.00;;;3.90;;
79747;SDS011;69232;47.488;19.268;2023-08-24T02:52:14;5.90;;;4.07;;
79747;SDS011;69232;47.488;19.268;2023-08-24T02:54:40;5.75;;;4.43;;
79747;SDS011;69232;47.488;19.268;2023-08-24T02:57:05;6.47;;;4.03;;
79747;SDS011;69232;47.488;19.268;2023-08-24T02:59:30;6.50;;;4.50;;
79747;SDS011;69232;47.488;19.268;2023-08-24T03:01:56;8.85;;;4.80;;
79747;SDS011;69232;47.488;19.268;2023-08-24T03:04:21;7.10;;;5.20;;
79747;SDS011;69232;47.488;19.268;2023-08-24T03:06:47;7.57;;;4.50;;
79747;SDS011;69232;47.488;19.268;2023-08-24T03:09:12;8.13;;;5.60;;
79747;SDS011;69232;47.488;19.268;2023-08-24T03:11:38;6.18;;;4.30;;
79747;SDS011;69232;47.488;19.268;2023-08-24T03:14:03;7.95;;;4.65;;
79747;SDS011;69232;47.488;19.268;2023-08-24T03:16:29;6.22;;;3.85;;
79747;SDS011;69232;47.488;19.268;2023-08-24T03:18:54;6.82;;;4.78;;
79747;SDS011;69232;47.488;19.268;2023-08-24T03:21:20;8.20;;;5.05;;
79747;SDS011;69232;47.488;19.268;2023-08-24T03:23:46;9.93;;;4.72;;
79747;SDS011;69232;47.488;19.268;2023-08-24T03:26:11;5.95;;;4.35;;
79747;SDS011;69232;47.488;19.268;2023-08-24T03:28:37;8.20;;;4.95;;
79747;SDS011;69232;47.488;19.268;2023-08-24T03:31:02;6.70;;;4.70;;
79747;SDS011;69232;47.488;19.268;2023-08-24T03:33:28;6.80;;;4.40;;
79747;SDS011;69232;47.488;19.268;2023-08-24T03:35:53;10.18;;;4.60;;
79747;SDS011;69232;47.488;19.268;2023-08-24T03:38:19;6.65;;;4.43;;
79747;SDS011;69232;47.488;19.268;2023-08-24T03:40:45;9.13;;;4.28;;
79747;SDS011;69232;47.488;19.268;2023-08-24T03:43:10;8.77;;;5.22;;
79747;SDS011;69232;47.488;19.268;2023-08-24T03:45:35;8.18;;;5.40;;
79747;SDS011;69232;47.488;19.268;2023-08-24T03:48:01;9.05;;;4.90;;
79747;SDS011;69232;47.488;19.268;2023-08-24T03:50:26;7.72;;;4.82;;
79747;SDS011;69232;47.488;19.268;2023-08-24T03:52:52;8.07;;;4.47;;
79747;SDS011;69232;47.488;19.268;2023-08-24T03:55:19;9.65;;;4.65;;
79747;SDS011;69232;47.488;19.268;2023-08-24T03:57:45;9.13;;;4.95;;
79747;SDS011;69232;47.488;19.268;2023-08-24T04:00:10;6.65;;;4.65;;
79747;SDS011;69232;47.488;19.268;2023-08-24T04:02:42;7.95;;;4.63;;
79747;SDS011;69232;47.488;19.268;2023-08-24T04:05:08;7.78;;;4.65;;
79747;SDS011;69232;47.488;19.268;2023-08-24T04:07:33;8.93;;;4.75;;
79747;SDS011;69232;47.488;19.268;2023-08-24T04:10:02;10.32;;;5.32;;
79747;SDS011;69232;47.488;19.268;2023-08-24T04:12:30;7.15;;;4.60;;
79747;SDS011;69232;47.488;19.268;2023-08-24T04:14:56;7.40;;;4.93;;
79747;SDS011;69232;47.488;19.268;2023-08-24T04:17:22;7.22;;;4.90;;
79747;SDS011;69232;47.488;19.268;2023-08-24T04:19:48;8.38;;;5.45;;
79747;SDS011;69232;47.488;19.268;2023-08-24T04:22:13;9.02;;;5.63;;
79747;SDS011;69232;47.488;19.268;2023-08-24T04:24:39;6.05;;;4.45;;
79747;SDS011;69232;47.488;19.268;2023-08-24T04:27:04;9.75;;;5.45;;
79747;SDS011;69232;47.488;19.268;2023-08-24T04:29:30;8.60;;;4.40;;
79747;SDS011;69232;47.488;19.268;2023-08-24T04:31:55;7.90;;;5.53;;
79747;SDS011;69232;47.488;19.268;2023-08-24T04:34:21;8.38;;;5.15;;
79747;SDS011;69232;47.488;19.268;2023-08-24T04:36:46;9.68;;;5.30;;
79747;SDS011;69232;47.488;19.268;2023-08-24T04:39:11;8.10;;;4.97;;
79747;SDS011;69232;47.488;19.268;2023-08-24T04:41:37;6.95;;;4.82;;
79747;SDS011;69232;47.488;19.268;2023-08-24T04:44:02;9.45;;;5.22;;
79747;SDS011;69232;47.488;19.268;2023-08-24T04:46:28;7.32;;;4.63;;
79747;SDS011;69232;47.488;19.268;2023-08-24T04:48:53;7.95;;;4.85;;
79747;SDS011;69232;47.488;19.268;2023-08-24T04:51:19;9.65;;;5.65;;
79747;SDS011;69232;47.488;19.268;2023-08-24T04:53:44;9.32;;;5.75;;
79747;SDS011;69232;47.488;19.268;2023-08-24T04:56:09;8.63;;;5.10;;
79747;SDS011;69232;47.488;19.268;2023-08-24T04:58:35;10.10;;;5.75;;
79747;SDS011;69232;47.488;19.268;2023-08-24T05:01:00;8.98;;;5.45;;
79747;SDS011;69232;47.488;19.268;2023-08-24T05:03:26;9.70;;;5.82;;
79747;SDS011;69232;47.488;19.268;2023-08-24T05:05:51;8.93;;;5.30;;
79747;SDS011;69232;47.488;19.268;2023-08-24T05:08:16;7.50;;;5.10;;
79747;SDS011;69232;47.488;19.268;2023-08-24T05:10:42;8.32;;;5.35;;
79747;SDS011;69232;47.488;19.268;2023-08-24T05:13:08;8.95;;;5.38;;
79747;SDS011;69232;47.488;19.268;2023-08-24T05:15:33;7.93;;;5.00;;
79747;SDS011;69232;47.488;19.268;2023-08-24T05:17:59;8.95;;;5.85;;
79747;SDS011;69232;47.488;19.268;2023-08-24T05:20:25;9.63;;;5.68;;
79747;SDS011;69232;47.488;19.268;2023-08-24T05:22:51;9.82;;;5.40;;
79747;SDS011;69232;47.488;19.268;2023-08-24T05:25:16;9.55;;;6.15;;
79747;SDS011;69232;47.488;19.268;2023-08-24T05:27:43;8.25;;;4.82;;
79747;SDS011;69232;47.488;19.268;2023-08-24T05:30:08;9.25;;;5.40;;
79747;SDS011;69232;47.488;19.268;2023-08-24T05:32:34;12.70;;;6.43;;
79747;SDS011;69232;47.488;19.268;2023-08-24T05:35:04;11.70;;;6.00;;
79747;SDS011;69232;47.488;19.268;2023-08-24T05:37:33;10.70;;;5.88;;
79747;SDS011;69232;47.488;19.268;2023-08-24T05:39:59;8.82;;;5.72;;
79747;SDS011;69232;47.488;19.268;2023-08-24T05:42:26;8.57;;;5.78;;
79747;SDS011;69232;47.488;19.268;2023-08-24T05:44:51;10.70;;;5.47;;
79747;SDS011;69232;47.488;19.268;2023-08-24T05:47:16;9.57;;;5.10;;
79747;SDS011;69232;47.488;19.268;2023-08-24T05:49:42;10.27;;;5.85;;
79747;SDS011;69232;47.488;19.268;2023-08-24T05:52:07;7.25;;;4.97;;
79747;SDS011;69232;47.488;19.268;2023-08-24T05:54:33;8.65;;;5.15;;
79747;SDS011;69232;47.488;19.268;2023-08-24T05:56:58;10.55;;;6.00;;
79747;SDS011;69232;47.488;19.268;2023-08-24T05:59:26;9.43;;;5.07;;
79747;SDS011;69232;47.488;19.268;2023-08-24T06:01:51;8.98;;;5.15;;
79747;SDS011;69232;47.488;19.268;2023-08-24T06:04:17;6.53;;;4.57;;
79747;SDS011;69232;47.488;19.268;2023-08-24T06:06:42;6.85;;;4.93;;
79747;SDS011;69232;47.488;19.268;2023-08-24T06:09:08;8.35;;;5.28;;
79747;SDS011;69232;47.488;19.268;2023-08-24T06:11:35;7.38;;;4.68;;
79747;SDS011;69232;47.488;19.268;2023-08-24T06:14:01;7.65;;;4.60;;
79747;SDS011;69232;47.488;19.268;2023-08-24T06:16:26;7.10;;;4.65;;
79747;SDS011;69232;47.488;19.268;2023-08-24T06:18:52;6.88;;;4.68;;
79747;SDS011;69232;47.488;19.268;2023-08-24T06:21:18;7.63;;;4.88;;
79747;SDS011;69232;47.488;19.268;2023-08-24T06:23:43;9.68;;;4.82;;
79747;SDS011;69232;47.488;19.268;2023-08-24T06:26:09;7.53;;;4.78;;
79747;SDS011;69232;47.488;19.268;2023-08-24T06:28:35;6.15;;;4.47;;
79747;SDS011;69232;47.488;19.268;2023-08-24T06:31:00;8.32;;;4.55;;
79747;SDS011;69232;47.488;19.268;2023-08-24T06:33:29;6.22;;;3.97;;
79747;SDS011;69232;47.488;19.268;2023-08-24T06:35:55;6.95;;;4.47;;
79747;SDS011;69232;47.488;19.268;2023-08-24T06:38:21;8.82;;;4.57;;
79747;SDS011;69232;47.488;19.268;2023-08-24T06:40:47;8.02;;;4.65;;
79747;SDS011;69232;47.488;19.268;2023-08-24T06:43:12;7.18;;;4.88;;
79747;SDS011;69232;47.488;19.268;2023-08-24T06:45:38;9.52;;;4.75;;
79747;SDS011;69232;47.488;19.268;2023-08-24T06:48:05;8.38;;;4.95;;
79747;SDS011;69232;47.488;19.268;2023-08-24T06:50:32;7.55;;;4.90;;
79747;SDS011;69232;47.488;19.268;2023-08-24T06:52:58;6.07;;;4.40;;
79747;SDS011;69232;47.488;19.268;2023-08-24T06:55:23;7.38;;;4.88;;
79747;SDS011;69232;47.488;19.268;2023-08-24T06:57:49;7.65;;;4.75;;
79747;SDS011;69232;47.488;19.268;2023-08-24T07:00:17;9.02;;;4.80;;
79747;SDS011;69232;47.488;19.268;2023-08-24T07:02:45;6.85;;;4.68;;
79747;SDS011;69232;47.488;19.268;2023-08-24T07:05:11;8.23;;;4.63;;
79747;SDS011;69232;47.488;19.268;2023-08-24T07:07:37;7.75;;;4.80;;
79747;SDS011;69232;47.488;19.268;2023-08-24T07:10:03;7.53;;;4.35;;
79747;SDS011;69232;47.488;19.268;2023-08-24T07:12:29;7.93;;;5.07;;
79747;SDS011;69232;47.488;19.268;2023-08-24T07:14:54;7.97;;;4.90;;
79747;SDS011;69232;47.488;19.268;2023-08-24T07:17:20;8.10;;;4.88;;
79747;SDS011;69232;47.488;19.268;2023-08-24T07:19:45;9.73;;;5.25;;
79747;SDS011;69232;47.488;19.268;2023-08-24T07:22:10;6.20;;;4.30;;
79747;SDS011;69232;47.488;19.268;2023-08-24T07:24:36;5.15;;;3.72;;
79747;SDS011;69232;47.488;19.268;2023-08-24T07:27:02;7.18;;;4.63;;
79747;SDS011;69232;47.488;19.268;2023-08-24T07:29:30;5.78;;;4.53;;
79747;SDS011;69232;47.488;19.268;2023-08-24T07:31:56;6.05;;;4.53;;
79747;SDS011;69232;47.488;19.268;2023-08-24T07:34:22;7.30;;;4.65;;
79747;SDS011;69232;47.488;19.268;2023-08-24T07:36:47;6.75;;;4.38;;
79747;SDS011;69232;47.488;19.268;2023-08-24T07:39:14;5.53;;;4.00;;
79747;SDS011;69232;47.488;19.268;2023-08-24T07:41:40;5.70;;;4.20;;
79747;SDS011;69232;47.488;19.268;2023-08-24T07:44:06;7.13;;;4.80;;
79747;SDS011;69232;47.488;19.268;2023-08-24T07:46:32;7.13;;;4.60;;
79747;SDS011;69232;47.488;19.268;2023-08-24T07:48:57;7.63;;;4.60;;
79747;SDS011;69232;47.488;19.268;2023-08-24T07:51:22;7.75;;;4.45;;
79747;SDS011;69232;47.488;19.268;2023-08-24T07:53:48;7.75;;;4.55;;
79747;SDS011;69232;47.488;19.268;2023-08-24T07:56:15;6.40;;;4.88;;
79747;SDS011;69232;47.488;19.268;2023-08-24T07:58:41;8.35;;;4.80;;
79747;SDS011;69232;47.488;19.268;2023-08-24T08:01:06;7.45;;;4.57;;
79747;SDS011;69232;47.488;19.268;2023-08-24T08:03:32;7.18;;;4.90;;
79747;SDS011;69232;47.488;19.268;2023-08-24T08:05:57;6.78;;;4.40;;
79747;SDS011;69232;47.488;19.268;2023-08-24T08:08:23;5.38;;;4.00;;
79747;SDS011;69232;47.488;19.268;2023-08-24T08:10:55;8.57;;;4.50;;
79747;SDS011;69232;47.488;19.268;2023-08-24T08:13:26;6.00;;;4.32;;
79747;SDS011;69232;47.488;19.268;2023-08-24T08:15:52;6.50;;;4.25;;
79747;SDS011;69232;47.488;19.268;2023-08-24T08:18:18;7.13;;;4.47;;
79747;SDS011;69232;47.488;19.268;2023-08-24T08:20:43;6.85;;;4.47;;
79747;SDS011;69232;47.488;19.268;2023-08-24T08:23:09;5.88;;;3.70;;
79747;SDS011;69232;47.488;19.268;2023-08-24T08:25:34;7.35;;;4.30;;
79747;SDS011;69232;47.488;19.268;2023-08-24T08:27:59;6.03;;;4.22;;
79747;SDS011;69232;47.488;19.268;2023-08-24T08:30:25;5.40;;;4.20;;
79747;SDS011;69232;47.488;19.268;2023-08-24T08:32:50;5.55;;;3.53;;
79747;SDS011;69232;47.488;19.268;2023-08-24T08:35:17;7.40;;;4.15;;
79747;SDS011;69232;47.488;19.268;2023-08-24T08:37:43;6.63;;;4.00;;
79747;SDS011;69232;47.488;19.268;2023-08-24T08:40:09;5.45;;;4.25;;
79747;SDS011;69232;47.488;19.268;2023-08-24T08:42:35;5.50;;;3.90;;
79747;SDS011;69232;47.488;19.268;2023-08-24T08:45:02;5.95;;;4.43;;
79747;SDS011;69232;47.488;19.268;2023-08-24T08:47:29;5.57;;;4.15;;
79747;SDS011;69232;47.488;19.268;2023-08-24T08:49:55;6.20;;;4.13;;
79747;SDS011;69232;47.488;19.268;2023-08-24T08:52:21;6.60;;;3.92;;
79747;SDS011;69232;47.488;19.268;2023-08-24T08:54:47;5.43;;;4.05;;
79747;SDS011;69232;47.488;19.268;2023-08-24T08:57:12;6.32;;;3.83;;
79747;SDS011;69232;47.488;19.268;2023-08-24T08:59:39;5.97;;;3.80;;
79747;SDS011;69232;47.488;19.268;2023-08-24T09:02:04;5.10;;;3.80;;
79747;SDS011;69232;47.488;19.268;2023-08-24T09:04:31;4.38;;;3.20;;
79747;SDS011;69232;47.488;19.268;2023-08-24T09:06:57;5.57;;;3.45;;
79747;SDS011;69232;47.488;19.268;2023-08-24T09:09:23;5.80;;;3.78;;
79747;SDS011;69232;47.488;19.268;2023-08-24T09:11:49;4.75;;;3.58;;
79747;SDS011;69232;47.488;19.268;2023-08-24T09:14:15;5.18;;;3.40;;
79747;SDS011;69232;47.488;19.268;2023-08-24T09:16:41;5.90;;;3.35;;
79747;SDS011;69232;47.488;19.268;2023-08-24T09:19:06;5.80;;;3.88;;
79747;SDS011;69232;47.488;19.268;2023-08-24T09:21:36;4.50;;;3.00;;
79747;SDS011;69232;47.488;19.268;2023-08-24T09:24:02;3.95;;;3.20;;
79747;SDS011;69232;47.488;19.268;2023-08-24T09:26:29;4.28;;;2.90;;
79747;SDS011;69232;47.488;19.268;2023-08-24T09:28:58;6.70;;;4.28;;
79747;SDS011;69232;47.488;19.268;2023-08-24T09:31:34;4.55;;;3.40;;
79747;SDS011;69232;47.488;19.268;2023-08-24T09:34:01;4.90;;;3.63;;
79747;SDS011;69232;47.488;19.268;2023-08-24T09:36:30;4.10;;;3.38;;
79747;SDS011;69232;47.488;19.268;2023-08-24T09:38:56;4.68;;;2.97;;
79747;SDS011;69232;47.488;19.268;2023-08-24T09:41:23;4.38;;;2.67;;
79747;SDS011;69232;47.488;19.268;2023-08-24T09:43:49;4.25;;;2.97;;
79747;SDS011;69232;47.488;19.268;2023-08-24T09:46:18;5.45;;;3.33;;
79747;SDS011;69232;47.488;19.268;2023-08-24T09:48:44;5.53;;;3.08;;
79747;SDS011;69232;47.488;19.268;2023-08-24T09:51:09;5.72;;;3.63;;
79747;SDS011;69232;47.488;19.268;2023-08-24T09:53:36;4.10;;;3.17;;
79747;SDS011;69232;47.488;19.268;2023-08-24T09:56:05;3.80;;;3.17;;
79747;SDS011;69232;47.488;19.268;2023-08-24T09:58:34;4.28;;;3.20;;
79747;SDS011;69232;47.488;19.268;2023-08-24T10:00:59;6.63;;;3.40;;
79747;SDS011;69232;47.488;19.268;2023-08-24T10:03:27;6.00;;;3.45;;
79747;SDS011;69232;47.488;19.268;2023-08-24T10:05:53;7.10;;;3.13;;
79747;SDS011;69232;47.488;19.268;2023-08-24T10:08:24;5.35;;;3.60;;
79747;SDS011;69232;47.488;19.268;2023-08-24T10:10:56;3.67;;;3.00;;
79747;SDS011;69232;47.488;19.268;2023-08-24T10:13:44;6.10;;;3.30;;
79747;SDS011;69232;47.488;19.268;2023-08-24T10:16:32;4.40;;;3.05;;
79747;SDS011;69232;47.488;19.268;2023-08-24T10:18:58;3.85;;;2.95;;
79747;SDS011;69232;47.488;19.268;2023-08-24T10:21:23;4.03;;;3.33;;
79747;SDS011;69232;47.488;19.268;2023-08-24T10:23:51;5.00;;;3.53;;
79747;SDS011;69232;47.488;19.268;2023-08-24T10:26:18;6.00;;;3.20;;
79747;SDS011;69232;47.488;19.268;2023-08-24T10:28:45;6.20;;;3.40;;
79747;SDS011;69232;47.488;19.268;2023-08-24T10:31:11;4.60;;;3.25;;
79747;SDS011;69232;47.488;19.268;2023-08-24T10:33:37;5.68;;;3.30;;
79747;SDS011;69232;47.488;19.268;2023-08-24T10:36:06;4.35;;;3.10;;
79747;SDS011;69232;47.488;19.268;2023-08-24T10:38:33;4.10;;;3.47;;
79747;SDS011;69232;47.488;19.268;2023-08-24T10:41:03;4.20;;;3.20;;
79747;SDS011;69232;47.488;19.268;2023-08-24T10:43:29;5.18;;;3.22;;
79747;SDS011;69232;47.488;19.268;2023-08-24T10:48:22;5.90;;;3.63;;
79747;SDS011;69232;47.488;19.268;2023-08-24T10:56:17;4.05;;;3.03;;
79747;SDS011;69232;47.488;19.268;2023-08-24T10:58:43;4.57;;;3.25;;
79747;SDS011;69232;47.488;19.268;2023-08-24T11:01:19;4.72;;;3.38;;
79747;SDS011;69232;47.488;19.268;2023-08-24T11:03:56;4.47;;;3.17;;
79747;SDS011;69232;47.488;19.268;2023-08-24T11:06:22;5.45;;;3.50;;
79747;SDS011;69232;47.488;19.268;2023-08-24T11:08:49;5.03;;;3.42;;
79747;SDS011;69232;47.488;19.268;2023-08-24T11:11:30;4.75;;;3.03;;
79747;SDS011;69232;47.488;19.268;2023-08-24T11:14:14;5.05;;;3.33;;
79747;SDS011;69232;47.488;19.268;2023-08-24T11:17:17;2.97;;;2.67;;
79747;SDS011;69232;47.488;19.268;2023-08-24T11:19:49;3.25;;;2.70;;
79747;SDS011;69232;47.488;19.268;2023-08-24T11:22:17;4.38;;;3.40;;
79747;SDS011;69232;47.488;19.268;2023-08-24T11:24:42;3.83;;;2.85;;
79747;SDS011;69232;47.488;19.268;2023-08-24T11:27:08;3.83;;;2.60;;
79747;SDS011;69232;47.488;19.268;2023-08-24T11:29:34;3.88;;;2.90;;
79747;SDS011;69232;47.488;19.268;2023-08-24T11:31:59;3.95;;;2.70;;
79747;SDS011;69232;47.488;19.268;2023-08-24T11:34:25;4.45;;;3.15;;
79747;SDS011;69232;47.488;19.268;2023-08-24T11:36:50;4.55;;;2.80;;
79747;SDS011;69232;47.488;19.268;2023-08-24T11:39:17;3.25;;;2.50;;
79747;SDS011;69232;47.488;19.268;2023-08-24T11:42:03;5.85;;;2.72;;
79747;SDS011;69232;47.488;19.268;2023-08-24T11:44:30;3.95;;;2.75;;
79747;SDS011;69232;47.488;19.268;2023-08-24T11:47:09;4.65;;;3.22;;
79747;SDS011;69232;47.488;19.268;2023-08-24T11:49:35;6.28;;;2.78;;
79747;SDS011;69232;47.488;19.268;2023-08-24T11:52:00;6.97;;;3.10;;
79747;SDS011;69232;47.488;19.268;2023-08-24T11:54:26;4.68;;;3.03;;
79747;SDS011;69232;47.488;19.268;2023-08-24T11:56:52;3.90;;;2.90;;
79747;SDS011;69232;47.488;19.268;2023-08-24T11:59:17;5.85;;;3.08;;
79747;SDS011;69232;47.488;19.268;2023-08-24T12:01:43;3.53;;;2.47;;
79747;SDS011;69232;47.488;19.268;2023-08-24T12:04:11;3.42;;;2.65;;
79747;SDS011;69232;47.488;19.268;2023-08-24T12:06:37;6.85;;;2.85;;
79747;SDS011;69232;47.488;19.268;2023-08-24T12:09:04;3.47;;;2.58;;
79747;SDS011;69232;47.488;19.268;2023-08-24T12:11:30;2.80;;;2.47;;
79747;SDS011;69232;47.488;19.268;2023-08-24T12:14:00;5.22;;;2.90;;
79747;SDS011;69232;47.488;19.268;2023-08-24T12:16:26;4.47;;;3.10;;
79747;SDS011;69232;47.488;19.268;2023-08-24T12:18:56;5.80;;;3.05;;
79747;SDS011;69232;47.488;19.268;2023-08-24T12:21:24;3.15;;;2.47;;
79747;SDS011;69232;47.488;19.268;2023-08-24T12:24:01;2.92;;;2.50;;
79747;SDS011;69232;47.488;19.268;2023-08-24T12:26:31;3.35;;;2.45;;
79747;SDS011;69232;47.488;19.268;2023-08-24T12:29:00;3.72;;;2.72;;
79747;SDS011;69232;47.488;19.268;2023-08-24T12:31:28;4.38;;;2.50;;
79747;SDS011;69232;47.488;19.268;2023-08-24T12:34:00;3.40;;;2.50;;
79747;SDS011;69232;47.488;19.268;2023-08-24T12:36:28;4.03;;;2.67;;
79747;SDS011;69232;47.488;19.268;2023-08-24T12:38:53;3.33;;;2.47;;
79747;SDS011;69232;47.488;19.268;2023-08-24T12:41:19;3.22;;;2.60;;
79747;SDS011;69232;47.488;19.268;2023-08-24T12:43:44;4.05;;;2.83;;
79747;SDS011;69232;47.488;19.268;2023-08-24T12:46:10;4.43;;;3.30;;
79747;SDS011;69232;47.488;19.268;2023-08-24T12:48:35;4.20;;;2.85;;
79747;SDS011;69232;47.488;19.268;2023-08-24T12:51:00;4.43;;;3.00;;
79747;SDS011;69232;47.488;19.268;2023-08-24T12:53:26;6.07;;;2.72;;
79747;SDS011;69232;47.488;19.268;2023-08-24T12:55:51;3.78;;;2.65;;
79747;SDS011;69232;47.488;19.268;2023-08-24T12:58:17;3.78;;;2.60;;
79747;SDS011;69232;47.488;19.268;2023-08-24T13:00:43;4.00;;;2.85;;
79747;SDS011;69232;47.488;19.268;2023-08-24T13:03:09;3.30;;;2.42;;
79747;SDS011;69232;47.488;19.268;2023-08-24T13:05:34;3.95;;;3.28;;
79747;SDS011;69232;47.488;19.268;2023-08-24T13:08:00;3.10;;;2.63;;
79747;SDS011;69232;47.488;19.268;2023-08-24T13:10:25;7.68;;;2.88;;
79747;SDS011;69232;47.488;19.268;2023-08-24T13:12:51;3.85;;;2.67;;
79747;SDS011;69232;47.488;19.268;2023-08-24T13:15:16;3.63;;;2.60;;
79747;SDS011;69232;47.488;19.268;2023-08-24T13:17:42;2.83;;;2.50;;
79747;SDS011;69232;47.488;19.268;2023-08-24T13:20:07;3.33;;;2.47;;
79747;SDS011;69232;47.488;19.268;2023-08-24T13:22:33;8.10;;;2.75;;
79747;SDS011;69232;47.488;19.268;2023-08-24T13:24:58;3.53;;;3.10;;
79747;SDS011;69232;47.488;19.268;2023-08-24T13:27:24;3.15;;;2.80;;
79747;SDS011;69232;47.488;19.268;2023-08-24T13:29:49;5.78;;;2.78;;
79747;SDS011;69232;47.488;19.268;2023-08-24T13:32:15;3.13;;;2.40;;
79747;SDS011;69232;47.488;19.268;2023-08-24T13:34:40;4.50;;;2.40;;
79747;SDS011;69232;47.488;19.268;2023-08-24T13:37:06;2.90;;;2.55;;
79747;SDS011;69232;47.488;19.268;2023-08-24T13:39:31;3.60;;;2.47;;
79747;SDS011;69232;47.488;19.268;2023-08-24T13:41:57;6.40;;;4.07;;
79747;SDS011;69232;47.488;19.268;2023-08-24T13:44:23;3.80;;;2.33;;
79747;SDS011;69232;47.488;19.268;2023-08-24T13:46:49;4.70;;;2.85;;
79747;SDS011;69232;47.488;19.268;2023-08-24T13:49:15;3.38;;;2.65;;
79747;SDS011;69232;47.488;19.268;2023-08-24T13:51:43;4.93;;;2.80;;
79747;SDS011;69232;47.488;19.268;2023-08-24T13:54:15;3.53;;;2.50;;
79747;SDS011;69232;47.488;19.268;2023-08-24T13:56:44;4.15;;;2.47;;
79747;SDS011;69232;47.488;19.268;2023-08-24T13:59:10;5.65;;;2.47;;
79747;SDS011;69232;47.488;19.268;2023-08-24T14:01:36;4.25;;;2.42;;
79747;SDS011;69232;47.488;19.268;2023-08-24T14:04:02;3.90;;;2.17;;
79747;SDS011;69232;47.488;19.268;2023-08-24T14:06:28;3.15;;;2.42;;
79747;SDS011;69232;47.488;19.268;2023-08-24T14:08:54;3.80;;;1.90;;
79747;SDS011;69232;47.488;19.268;2023-08-24T14:11:21;3.88;;;2.53;;
79747;SDS011;69232;47.488;19.268;2023-08-24T14:13:46;3.75;;;2.42;;
79747;SDS011;69232;47.488;19.268;2023-08-24T14:16:11;3.88;;;2.85;;
79747;SDS011;69232;47.488;19.268;2023-08-24T14:18:37;3.22;;;2.28;;
79747;SDS011;69232;47.488;19.268;2023-08-24T14:21:03;5.95;;;2.80;;
79747;SDS011;69232;47.488;19.268;2023-08-24T14:23:28;3.28;;;2.20;;
79747;SDS011;69232;47.488;19.268;2023-08-24T14:25:54;3.92;;;2.80;;
79747;SDS011;69232;47.488;19.268;2023-08-24T14:28:20;3.20;;;2.38;;
79747;SDS011;69232;47.488;19.268;2023-08-24T14:30:47;3.58;;;2.40;;
79747;SDS011;69232;47.488;19.268;2023-08-24T14:33:13;4.70;;;2.47;;
79747;SDS011;69232;47.488;19.268;2023-08-24T14:35:38;4.00;;;2.85;;
79747;SDS011;69232;47.488;19.268;2023-08-24T14:38:04;4.22;;;2.38;;
79747;SDS011;69232;47.488;19.268;2023-08-24T14:40:29;3.03;;;2.33;;